createdAt,value
2018-03-18T00:00:10.548Z,-5.80
2018-03-18T00:02:37.573Z,-5.80
2018-03-18T00:05:03.788Z,-5.80
2018-03-18T00:07:30.040Z,-5.80
2018-03-18T00:09:56.236Z,-5.80
2018-03-18T00:12:22.457Z,-5.80
2018-03-18T00:14:49.392Z,-5.80
2018-03-18T00:17:16.429Z,-5.80
2018-03-18T00:19:42.630Z,-5.80
2018-03-18T00:22:08.857Z,-5.80
2018-03-18T00:24:35.084Z,-5.80
2018-03-18T00:27:02.064Z,-5.80
2018-03-18T00:29:28.705Z,-5.80
2018-03-18T00:31:54.952Z,-5.80
2018-03-18T00:34:21.912Z,-5.90
2018-03-18T00:36:48.136Z,-5.90
2018-03-18T00:39:14.340Z,-5.90
2018-03-18T00:41:41.308Z,-5.90
2018-03-18T00:44:07.521Z,-5.90
2018-03-18T00:46:33.744Z,-5.90
2018-03-18T00:49:00.785Z,-5.90
2018-03-18T00:51:39.173Z,-5.90
2018-03-18T00:54:05.404Z,-5.80
2018-03-18T00:56:31.609Z,-5.80
2018-03-18T00:58:58.146Z,-5.90
2018-03-18T01:01:24.348Z,-5.90
2018-03-18T01:03:50.581Z,-5.90
2018-03-18T01:06:16.776Z,-5.90
2018-03-18T01:08:43.024Z,-5.90
2018-03-18T01:11:09.956Z,-6.00
2018-03-18T01:13:36.176Z,-6.10
2018-03-18T01:16:02.436Z,-6.10
2018-03-18T01:18:29.375Z,-6.10
2018-03-18T01:20:56.344Z,-6.10
2018-03-18T01:23:22.547Z,-6.10
2018-03-18T01:25:49.517Z,-6.10
2018-03-18T01:28:15.707Z,-6.10
2018-03-18T01:30:41.936Z,-6.10
2018-03-18T01:33:08.170Z,-6.20
2018-03-18T01:35:35.145Z,-6.20
2018-03-18T01:38:01.336Z,-6.20
2018-03-18T01:40:27.569Z,-6.20
2018-03-18T01:42:53.768Z,-6.20
2018-03-18T01:45:19.994Z,-6.20
2018-03-18T01:47:46.189Z,-6.30
2018-03-18T01:50:12.408Z,-6.30
2018-03-18T01:52:38.703Z,-6.40
2018-03-18T01:55:06.425Z,-6.40
2018-03-18T01:57:32.624Z,-6.40
2018-03-18T01:59:58.861Z,-6.40
2018-03-18T02:02:25.793Z,-6.40
2018-03-18T02:04:52.761Z,-6.40
2018-03-18T02:07:19.021Z,-6.50
2018-03-18T02:09:45.243Z,-6.40
2018-03-18T02:12:11.807Z,-6.50
2018-03-18T02:14:38.765Z,-6.50
2018-03-18T02:17:05.594Z,-6.50
2018-03-18T02:19:33.019Z,-6.40
2018-03-18T02:21:59.690Z,-6.40
2018-03-18T02:24:26.800Z,-6.40
2018-03-18T02:26:53.004Z,-6.40
2018-03-18T02:29:20.352Z,-6.40
2018-03-18T02:31:47.321Z,-6.40
2018-03-18T02:34:13.597Z,-6.50
2018-03-18T02:36:39.842Z,-6.50
2018-03-18T02:39:06.024Z,-6.50
2018-03-18T02:41:32.250Z,-6.50
2018-03-18T02:43:58.716Z,-6.50
2018-03-18T02:46:24.908Z,-6.50
2018-03-18T02:48:51.193Z,-6.50
2018-03-18T02:51:17.408Z,-6.50
2018-03-18T02:53:43.665Z,-6.50
2018-03-18T02:56:09.898Z,-6.50
2018-03-18T02:58:36.840Z,-6.60
2018-03-18T03:01:03.073Z,-6.60
2018-03-18T03:03:30.016Z,-6.60
2018-03-18T03:05:56.985Z,-6.60
2018-03-18T03:08:23.186Z,-6.60
2018-03-18T03:10:50.420Z,-6.70
2018-03-18T03:13:16.648Z,-6.60
2018-03-18T03:15:42.842Z,-6.70
2018-03-18T03:18:09.107Z,-6.70
2018-03-18T03:20:35.301Z,-6.80
2018-03-18T03:23:01.534Z,-6.80
2018-03-18T03:25:27.733Z,-6.80
2018-03-18T03:27:54.697Z,-6.80
2018-03-18T03:30:20.886Z,-6.80
2018-03-18T03:32:47.141Z,-6.80
2018-03-18T03:35:13.348Z,-6.80
2018-03-18T03:37:39.572Z,-6.80
2018-03-18T03:40:05.764Z,-6.80
2018-03-18T03:42:38.996Z,-6.80
2018-03-18T03:45:05.198Z,-6.80
2018-03-18T03:47:31.396Z,-6.80
2018-03-18T03:49:57.616Z,-6.80
2018-03-18T03:52:23.862Z,-6.80
2018-03-18T03:54:50.051Z,-6.90
2018-03-18T03:57:17.016Z,-6.90
2018-03-18T03:59:43.216Z,-6.90
2018-03-18T04:02:10.213Z,-6.90
2018-03-18T04:04:36.416Z,-6.90
2018-03-18T04:07:02.916Z,-7.00
2018-03-18T04:09:29.112Z,-7.00
2018-03-18T04:11:55.304Z,-7.00
2018-03-18T04:14:21.528Z,-7.00
2018-03-18T04:16:48.466Z,-7.00
2018-03-18T04:19:15.441Z,-7.00
2018-03-18T04:21:41.637Z,-7.00
2018-03-18T04:24:08.612Z,-7.10
2018-03-18T04:26:34.809Z,-7.10
2018-03-18T04:29:01.037Z,-7.10
2018-03-18T04:31:27.283Z,-7.10
2018-03-18T04:33:54.288Z,-7.20
2018-03-18T04:36:20.447Z,-7.20
2018-03-18T04:38:47.460Z,-7.30
2018-03-18T04:41:13.660Z,-7.30
2018-03-18T04:43:39.855Z,-7.30
2018-03-18T04:46:06.825Z,-7.30
2018-03-18T04:48:33.031Z,-7.30
2018-03-18T04:51:00.001Z,-7.30
2018-03-18T04:53:26.189Z,-7.40
2018-03-18T04:55:52.429Z,-7.40
2018-03-18T04:58:19.364Z,-7.40
2018-03-18T05:00:46.337Z,-7.40
2018-03-18T05:03:12.545Z,-7.40
2018-03-18T05:05:39.544Z,-7.40
2018-03-18T05:08:05.737Z,-7.40
2018-03-18T05:10:32.944Z,-7.40
2018-03-18T05:12:59.200Z,-7.50
2018-03-18T05:15:25.402Z,-7.50
2018-03-18T05:17:51.636Z,-7.50
2018-03-18T05:20:17.837Z,-7.50
2018-03-18T05:22:44.065Z,-7.60
2018-03-18T05:25:10.265Z,-7.60
2018-03-18T05:27:37.236Z,-7.60
2018-03-18T05:30:03.461Z,-7.60
2018-03-18T05:32:29.755Z,-7.60
2018-03-18T05:34:55.940Z,-7.60
2018-03-18T05:37:22.162Z,-7.60
2018-03-18T05:39:48.381Z,-7.60
2018-03-18T05:42:15.644Z,-7.60
2018-03-18T05:44:41.841Z,-7.60
2018-03-18T05:47:08.801Z,-7.60
2018-03-18T05:49:35.004Z,-7.60
2018-03-18T05:52:01.967Z,-7.50
2018-03-18T05:54:28.185Z,-7.50
2018-03-18T05:56:55.173Z,-7.50
2018-03-18T05:59:21.363Z,-7.50
2018-03-18T06:01:48.337Z,-7.50
2018-03-18T06:04:15.276Z,-7.50
2018-03-18T06:06:41.500Z,-7.50
2018-03-18T06:09:07.688Z,-7.50
2018-03-18T06:11:33.919Z,-7.50
2018-03-18T06:14:00.108Z,-7.50
2018-03-18T06:16:26.332Z,-7.50
2018-03-18T06:18:52.529Z,-7.50
2018-03-18T06:21:19.500Z,-7.40
2018-03-18T06:23:45.939Z,-7.50
2018-03-18T06:26:12.161Z,-7.50
2018-03-18T06:28:38.361Z,-7.40
2018-03-18T06:31:05.351Z,-7.30
2018-03-18T06:33:31.550Z,-7.30
2018-03-18T06:35:57.780Z,-7.20
2018-03-18T06:38:23.972Z,-7.20
2018-03-18T06:40:51.701Z,-7.30
2018-03-18T06:43:17.909Z,-7.30
2018-03-18T06:45:44.129Z,-7.20
2018-03-18T06:48:10.319Z,-7.10
2018-03-18T06:50:37.280Z,-7.10
2018-03-18T06:53:04.221Z,-6.90
2018-03-18T06:55:30.458Z,-6.90
2018-03-18T06:57:57.402Z,-6.80
2018-03-18T07:00:24.481Z,-6.80
2018-03-18T07:02:50.679Z,-6.80
2018-03-18T07:05:16.972Z,-6.80
2018-03-18T07:07:43.197Z,-6.70
2018-03-18T07:10:09.397Z,-6.50
2018-03-18T07:12:35.625Z,-6.50
2018-03-18T07:15:01.883Z,-6.30
2018-03-18T07:17:28.103Z,-6.30
2018-03-18T07:19:54.305Z,-6.30
2018-03-18T07:22:20.540Z,-6.30
2018-03-18T07:24:46.757Z,-6.10
2018-03-18T07:27:13.723Z,-5.70
2018-03-18T07:29:39.949Z,-5.70
2018-03-18T07:32:06.173Z,-5.60
2018-03-18T07:34:32.368Z,-5.70
2018-03-18T07:36:58.593Z,-5.60
2018-03-18T07:39:24.798Z,-5.60
2018-03-18T07:41:51.058Z,-5.60
2018-03-18T07:44:17.265Z,-5.50
2018-03-18T07:46:43.489Z,-5.40
2018-03-18T07:49:09.693Z,-5.10
2018-03-18T07:51:35.911Z,-5.00
2018-03-18T07:54:02.105Z,-5.00
2018-03-18T07:56:29.085Z,-5.00
2018-03-18T07:58:55.272Z,-5.00
2018-03-18T08:01:21.500Z,-4.80
2018-03-18T08:03:47.697Z,-4.80
2018-03-18T08:06:13.925Z,-4.70
2018-03-18T08:08:40.157Z,-4.20
2018-03-18T08:11:06.384Z,-4.00
2018-03-18T08:13:32.572Z,-4.00
2018-03-18T08:15:58.801Z,-4.00
2018-03-18T08:18:25.740Z,-4.10
2018-03-18T08:20:52.747Z,-4.10
2018-03-18T08:23:18.945Z,-4.10
2018-03-18T08:25:45.164Z,-4.00
2018-03-18T08:28:11.360Z,-3.70
2018-03-18T08:30:38.348Z,-2.90
2018-03-18T08:33:04.547Z,-2.90
2018-03-18T08:35:31.555Z,-2.50
2018-03-18T08:37:57.749Z,-2.50
2018-03-18T08:40:24.087Z,-1.80
2018-03-18T08:42:50.277Z,-2.00
2018-03-18T08:45:17.231Z,-2.50
2018-03-18T08:47:44.253Z,-2.80
2018-03-18T08:50:10.455Z,-2.90
2018-03-18T08:52:36.695Z,-2.40
2018-03-18T08:55:02.876Z,-2.50
2018-03-18T08:57:29.105Z,-1.80
2018-03-18T08:59:55.353Z,-1.60
2018-03-18T09:02:21.613Z,-1.50
2018-03-18T09:04:47.817Z,-1.70
2018-03-18T09:07:14.044Z,-1.50
2018-03-18T09:09:40.245Z,-1.30
2018-03-18T09:12:06.473Z,-1.10
2018-03-18T09:14:33.409Z,-1.00
2018-03-18T09:17:00.379Z,-1.10
2018-03-18T09:19:26.605Z,-1.10
2018-03-18T09:21:52.845Z,-1.20
2018-03-18T09:24:19.044Z,-1.50
2018-03-18T09:26:46.041Z,-1.10
2018-03-18T09:29:12.245Z,-1.10
2018-03-18T09:31:38.468Z,-0.90
2018-03-18T09:34:04.697Z,-1.10
2018-03-18T09:36:30.945Z,-0.10
2018-03-18T09:38:57.172Z,0.60
2018-03-18T09:41:23.369Z,1.00
2018-03-18T09:43:50.337Z,1.10
2018-03-18T09:46:16.584Z,1.00
2018-03-18T09:48:42.809Z,1.40
2018-03-18T09:51:09.010Z,1.60
2018-03-18T09:53:35.243Z,2.20
2018-03-18T09:56:01.433Z,1.90
2018-03-18T09:58:27.668Z,1.50
2018-03-18T10:00:54.612Z,2.60
2018-03-18T10:03:20.833Z,2.60
2018-03-18T10:05:47.038Z,2.20
2018-03-18T10:08:13.267Z,1.50
2018-03-18T10:10:39.461Z,1.60
2018-03-18T10:13:05.690Z,1.60
2018-03-18T10:15:31.885Z,1.60
2018-03-18T10:17:58.104Z,1.10
2018-03-18T10:20:24.328Z,1.40
2018-03-18T10:22:50.629Z,1.20
2018-03-18T10:25:16.829Z,0.60
2018-03-18T10:27:43.027Z,0.60
2018-03-18T10:30:09.280Z,1.20
2018-03-18T10:32:36.224Z,1.80
2018-03-18T10:35:03.209Z,1.80
2018-03-18T10:37:29.415Z,1.70
2018-03-18T10:39:55.653Z,1.70
2018-03-18T10:42:21.848Z,0.90
2018-03-18T10:44:48.812Z,0.90
2018-03-18T10:47:15.040Z,0.90
2018-03-18T10:49:41.290Z,1.60
2018-03-18T10:52:07.492Z,0.80
2018-03-18T10:54:34.465Z,2.40
2018-03-18T10:57:00.657Z,2.40
2018-03-18T10:59:27.618Z,0.70
2018-03-18T11:01:54.592Z,1.00
2018-03-18T11:04:20.798Z,1.00
2018-03-18T11:06:47.017Z,0.70
2018-03-18T11:09:13.241Z,0.60
2018-03-18T11:11:40.214Z,1.00
2018-03-18T11:14:06.443Z,1.00
2018-03-18T11:16:32.692Z,1.30
2018-03-18T11:18:58.945Z,1.90
2018-03-18T11:21:25.145Z,1.70
2018-03-18T11:23:51.434Z,1.80
2018-03-18T11:26:17.835Z,2.20
2018-03-18T11:28:44.104Z,2.10
2018-03-18T11:31:11.065Z,2.10
2018-03-18T11:33:37.312Z,2.00
2018-03-18T11:36:03.520Z,1.80
2018-03-18T11:38:29.745Z,1.80
2018-03-18T11:40:57.085Z,1.50
2018-03-18T11:43:24.044Z,1.30
2018-03-18T11:45:50.980Z,1.80
2018-03-18T11:48:17.944Z,2.00
2018-03-18T11:50:44.185Z,2.00
2018-03-18T11:53:10.465Z,1.80
2018-03-18T11:55:36.673Z,2.30
2018-03-18T11:58:03.644Z,2.20
2018-03-18T12:00:31.693Z,1.90
2018-03-18T12:02:57.908Z,1.90
2018-03-18T12:05:24.137Z,2.20
2018-03-18T12:07:50.321Z,3.00
2018-03-18T12:10:17.344Z,3.90
2018-03-18T12:12:43.532Z,3.90
2018-03-18T12:15:10.073Z,4.60
2018-03-18T12:17:36.264Z,4.70
2018-03-18T12:20:03.232Z,3.40
2018-03-18T12:22:29.430Z,3.40
2018-03-18T12:24:56.396Z,3.10
2018-03-18T12:27:22.601Z,3.10
2018-03-18T12:29:49.573Z,2.20
2018-03-18T12:32:15.788Z,2.20
2018-03-18T12:34:42.753Z,2.60
2018-03-18T12:37:08.957Z,2.60
2018-03-18T12:39:48.354Z,2.40
2018-03-18T12:42:27.797Z,2.30
2018-03-18T12:44:54.032Z,2.20
2018-03-18T12:47:20.353Z,2.80
2018-03-18T12:49:46.594Z,3.20
2018-03-18T12:52:13.542Z,2.80
2018-03-18T12:54:39.789Z,2.80
2018-03-18T12:57:05.994Z,3.20
2018-03-18T12:59:32.194Z,3.00
2018-03-18T13:01:58.425Z,3.10
2018-03-18T13:04:24.612Z,2.80
2018-03-18T13:06:51.707Z,3.20
2018-03-18T13:09:17.960Z,3.20
2018-03-18T13:11:44.157Z,3.50
2018-03-18T13:14:10.372Z,3.10
2018-03-18T13:16:36.625Z,2.80
2018-03-18T13:19:02.849Z,2.70
2018-03-18T13:21:29.045Z,3.00
2018-03-18T13:23:56.004Z,3.00
2018-03-18T13:26:22.213Z,3.00
2018-03-18T13:28:49.180Z,3.10
2018-03-18T13:31:15.407Z,3.10
2018-03-18T13:33:41.688Z,3.00
2018-03-18T13:36:08.721Z,2.80
2018-03-18T13:38:34.940Z,2.50
2018-03-18T13:41:01.132Z,2.50
2018-03-18T13:43:28.099Z,1.70
2018-03-18T13:45:54.297Z,1.70
2018-03-18T13:48:21.265Z,1.30
2018-03-18T13:50:47.459Z,1.30
2018-03-18T13:53:13.675Z,1.70
2018-03-18T13:55:39.864Z,2.00
2018-03-18T13:58:06.084Z,1.70
2018-03-18T14:00:32.284Z,1.70
2018-03-18T14:02:59.253Z,1.90
2018-03-18T14:05:25.461Z,1.90
2018-03-18T14:07:52.445Z,1.90
2018-03-18T14:10:18.638Z,1.90
2018-03-18T14:12:44.861Z,2.00
2018-03-18T14:15:11.805Z,1.60
2018-03-18T14:17:38.789Z,1.50
2018-03-18T14:20:04.989Z,1.50
2018-03-18T14:22:31.925Z,1.30
2018-03-18T14:24:58.893Z,1.60
2018-03-18T14:27:25.102Z,1.60
2018-03-18T14:29:51.320Z,1.60
2018-03-18T14:32:17.536Z,2.00
2018-03-18T14:34:43.764Z,2.00
2018-03-18T14:37:09.959Z,2.30
2018-03-18T14:39:36.209Z,2.30
2018-03-18T14:42:02.410Z,1.50
2018-03-18T14:44:28.637Z,0.90
2018-03-18T14:46:54.901Z,1.00
2018-03-18T14:49:21.129Z,0.80
2018-03-18T14:51:47.328Z,0.80
2018-03-18T14:54:13.562Z,0.90
2018-03-18T14:56:39.761Z,0.70
2018-03-18T14:59:06.752Z,0.30
2018-03-18T15:01:32.953Z,0.30
2018-03-18T15:03:59.234Z,0.40
2018-03-18T15:06:25.443Z,0.30
2018-03-18T15:08:51.789Z,0.20
2018-03-18T15:11:17.985Z,0.10
2018-03-18T15:13:44.180Z,-0.10
2018-03-18T15:16:11.164Z,-0.40
2018-03-18T15:18:37.356Z,-0.40
2018-03-18T15:21:04.321Z,-0.80
2018-03-18T15:23:30.656Z,-0.80
2018-03-18T15:25:56.880Z,-0.70
2018-03-18T15:28:23.339Z,-0.70
2018-03-18T15:30:49.612Z,-0.90
2018-03-18T15:33:15.813Z,-1.00
2018-03-18T15:35:42.039Z,-1.10
2018-03-18T15:38:08.264Z,-1.10
2018-03-18T15:40:34.448Z,-1.50
2018-03-18T15:43:01.384Z,-1.80
2018-03-18T15:45:28.349Z,-1.90
2018-03-18T15:47:54.551Z,-1.90
2018-03-18T15:50:20.797Z,-2.00
2018-03-18T15:52:47.731Z,-2.30
2018-03-18T15:55:14.709Z,-2.30
2018-03-18T15:57:40.914Z,-2.30
2018-03-18T16:00:07.881Z,-2.30
2018-03-18T16:02:34.070Z,-2.30
2018-03-18T16:05:00.358Z,-2.30
2018-03-18T16:07:26.545Z,-2.30
2018-03-18T16:09:53.495Z,-2.40
2018-03-18T16:12:20.432Z,-2.50
2018-03-18T16:14:46.657Z,-2.50
2018-03-18T16:17:12.856Z,-2.50
2018-03-18T16:19:39.071Z,-2.50
2018-03-18T16:22:05.284Z,-2.60
2018-03-18T16:24:31.508Z,-2.60
2018-03-18T16:26:57.705Z,-2.60
2018-03-18T16:29:37.179Z,-2.80
2018-03-18T16:32:03.410Z,-2.80
2018-03-18T16:34:29.628Z,-2.90
2018-03-18T16:36:55.821Z,-2.90
2018-03-18T16:39:22.050Z,-3.00
2018-03-18T16:41:48.244Z,-3.00
2018-03-18T16:44:14.468Z,-3.10
2018-03-18T16:46:40.661Z,-3.10
2018-03-18T16:49:07.628Z,-3.20
2018-03-18T16:51:33.819Z,-3.20
2018-03-18T16:54:00.804Z,-3.40
2018-03-18T16:56:26.996Z,-3.40
2018-03-18T16:58:53.964Z,-3.40
2018-03-18T17:01:20.154Z,-3.50
2018-03-18T17:03:47.164Z,-3.60
2018-03-18T17:06:13.358Z,-3.60
2018-03-18T17:08:40.324Z,-3.70
2018-03-18T17:11:06.508Z,-3.70
2018-03-18T17:13:32.740Z,-3.80
2018-03-18T17:15:58.928Z,-3.90
2018-03-18T17:18:25.125Z,-3.90
2018-03-18T17:20:52.085Z,-4.00
2018-03-18T17:23:18.443Z,-4.00
2018-03-18T17:25:44.640Z,-4.00
2018-03-18T17:28:10.840Z,-4.00
2018-03-18T17:30:37.851Z,-4.00
2018-03-18T17:33:04.050Z,-4.10
2018-03-18T17:35:30.272Z,-4.10
2018-03-18T17:37:56.468Z,-4.10
2018-03-18T17:40:22.701Z,-4.10
2018-03-18T17:42:48.976Z,-4.20
2018-03-18T17:45:27.405Z,-4.20
2018-03-18T17:48:05.948Z,-4.30
2018-03-18T17:50:44.621Z,-4.30
2018-03-18T17:53:23.181Z,-4.30
2018-03-18T17:55:49.444Z,-4.40
2018-03-18T17:58:16.389Z,-4.50
2018-03-18T18:00:43.376Z,-4.50
2018-03-18T18:03:09.568Z,-4.50
2018-03-18T18:05:36.536Z,-4.50
2018-03-18T18:08:02.733Z,-4.60
2018-03-18T18:10:29.713Z,-4.60
2018-03-18T18:12:55.913Z,-4.60
2018-03-18T18:15:22.884Z,-4.70
2018-03-18T18:17:49.093Z,-4.70
2018-03-18T18:20:16.404Z,-4.80
2018-03-18T18:22:42.974Z,-4.90
2018-03-18T18:25:09.237Z,-4.90
2018-03-18T18:27:35.436Z,-4.90
2018-03-18T18:30:02.417Z,-5.00
2018-03-18T18:32:28.644Z,-5.00
2018-03-18T18:34:54.864Z,-5.10
2018-03-18T18:37:21.061Z,-5.10
2018-03-18T18:39:47.290Z,-5.20
2018-03-18T18:42:13.504Z,-5.20
2018-03-18T18:44:39.752Z,-5.20
2018-03-18T18:47:05.940Z,-5.10
2018-03-18T18:49:32.181Z,-5.20
2018-03-18T18:51:58.368Z,-5.20
2018-03-18T18:54:24.590Z,-5.20
2018-03-18T18:56:50.808Z,-5.30
2018-03-18T18:59:17.777Z,-5.40
2018-03-18T19:01:44.226Z,-5.40
2018-03-18T19:04:10.452Z,-5.30
2018-03-18T19:06:36.636Z,-5.40
2018-03-18T19:09:03.636Z,-5.40
2018-03-18T19:11:29.833Z,-5.40
2018-03-18T19:13:56.052Z,-5.50
2018-03-18T19:16:22.998Z,-5.50
2018-03-18T19:18:49.977Z,-5.50
2018-03-18T19:21:16.172Z,-5.50
2018-03-18T19:23:43.133Z,-5.50
2018-03-18T19:26:09.328Z,-5.60
2018-03-18T19:28:35.558Z,-5.60
2018-03-18T19:31:01.784Z,-5.60
2018-03-18T19:33:28.760Z,-5.50
2018-03-18T19:35:54.957Z,-5.50
2018-03-18T19:38:21.180Z,-5.60
2018-03-18T19:40:47.380Z,-5.60
2018-03-18T19:43:13.596Z,-5.60
2018-03-18T19:45:39.835Z,-5.60
2018-03-18T19:48:06.802Z,-5.60
2018-03-18T19:50:32.996Z,-5.60
2018-03-18T19:52:59.225Z,-5.60
2018-03-18T19:55:25.424Z,-5.70
2018-03-18T19:57:52.388Z,-5.60
2018-03-18T20:00:18.582Z,-5.60
2018-03-18T20:02:44.789Z,-5.60
2018-03-18T20:05:11.024Z,-5.70
2018-03-18T20:07:37.233Z,-5.70
2018-03-18T20:10:03.487Z,-5.70
2018-03-18T20:12:29.716Z,-5.80
2018-03-18T20:14:55.913Z,-5.80
2018-03-18T20:17:22.141Z,-5.80
2018-03-18T20:19:48.340Z,-5.90
2018-03-18T20:22:15.293Z,-5.90
2018-03-18T20:24:41.516Z,-5.90
2018-03-18T20:27:07.721Z,-5.80
2018-03-18T20:29:34.688Z,-5.90
2018-03-18T20:32:01.653Z,-5.90
2018-03-18T20:34:27.873Z,-5.90
2018-03-18T20:36:54.093Z,-5.90
2018-03-18T20:39:21.066Z,-6.00
2018-03-18T20:41:47.260Z,-6.00
2018-03-18T20:44:14.233Z,-6.00
2018-03-18T20:46:40.423Z,-6.00
2018-03-18T20:49:07.388Z,-6.10
2018-03-18T20:51:34.336Z,-6.10
2018-03-18T20:54:01.329Z,-6.10
2018-03-18T20:56:27.525Z,-6.10
2018-03-18T20:58:53.765Z,-6.10
2018-03-18T21:01:19.992Z,-6.10
2018-03-18T21:03:46.220Z,-6.10
2018-03-18T21:06:12.425Z,-6.20
2018-03-18T21:08:38.663Z,-6.20
2018-03-18T21:11:04.856Z,-6.30
2018-03-18T21:13:31.084Z,-6.30
2018-03-18T21:15:57.394Z,-6.30
2018-03-18T21:18:23.624Z,-6.40
2018-03-18T21:20:49.828Z,-6.40
2018-03-18T21:23:16.076Z,-6.40
2018-03-18T21:25:42.264Z,-6.40
2018-03-18T21:28:09.193Z,-6.50
2018-03-18T21:30:36.196Z,-6.40
2018-03-18T21:33:02.418Z,-6.50
2018-03-18T21:35:28.685Z,-6.40
2018-03-18T21:37:54.916Z,-6.40
2018-03-18T21:40:21.145Z,-6.50
2018-03-18T21:42:47.341Z,-6.40
2018-03-18T21:45:13.567Z,-6.50
2018-03-18T21:47:39.768Z,-6.50
2018-03-18T21:50:06.012Z,-6.50
2018-03-18T21:52:32.205Z,-6.60
2018-03-18T21:54:59.421Z,-6.60
2018-03-18T21:57:25.612Z,-6.60
2018-03-18T21:59:51.805Z,-6.60
2018-03-18T22:02:18.030Z,-6.70
2018-03-18T22:04:44.252Z,-6.70
2018-03-18T22:07:11.284Z,-6.70
2018-03-18T22:09:37.484Z,-6.70
2018-03-18T22:12:03.778Z,-6.60
2018-03-18T22:14:30.709Z,-6.70
2018-03-18T22:16:56.936Z,-6.70
2018-03-18T22:19:23.132Z,-6.60
2018-03-18T22:21:49.356Z,-6.60
2018-03-18T22:24:15.549Z,-6.60
2018-03-18T22:26:42.511Z,-6.60
2018-03-18T22:29:08.708Z,-6.60
2018-03-18T22:31:35.541Z,-6.70
2018-03-18T22:34:01.737Z,-6.70
2018-03-18T22:36:27.963Z,-6.70
2018-03-18T22:38:54.180Z,-6.70
2018-03-18T22:41:20.416Z,-6.70
2018-03-18T22:43:46.608Z,-6.70
2018-03-18T22:46:13.574Z,-6.70
2018-03-18T22:48:39.777Z,-6.70
2018-03-18T22:51:07.090Z,-6.80
2018-03-18T22:53:33.285Z,-6.80
2018-03-18T22:55:59.484Z,-6.80
2018-03-18T22:58:26.453Z,-6.90
2018-03-18T23:00:52.655Z,-7.00
2018-03-18T23:03:19.629Z,-7.00
2018-03-18T23:05:45.836Z,-7.00
2018-03-18T23:08:12.804Z,-7.10
2018-03-18T23:10:39.008Z,-7.10
2018-03-18T23:13:05.973Z,-7.10
2018-03-18T23:15:32.232Z,-7.10
2018-03-18T23:17:58.476Z,-7.00
2018-03-18T23:20:24.679Z,-7.10
2018-03-18T23:22:50.919Z,-7.20
2018-03-18T23:25:17.148Z,-7.20
2018-03-18T23:27:43.371Z,-7.20
2018-03-18T23:30:09.594Z,-7.20
2018-03-18T23:32:35.844Z,-7.20
2018-03-18T23:35:02.077Z,-7.30
2018-03-18T23:37:28.313Z,-7.30
2018-03-18T23:39:54.503Z,-7.30
2018-03-18T23:42:20.726Z,-7.30
2018-03-18T23:44:46.948Z,-7.30
2018-03-18T23:47:13.180Z,-7.30
2018-03-18T23:49:39.372Z,-7.30
2018-03-18T23:52:05.596Z,-7.40
2018-03-18T23:54:33.277Z,-7.40
2018-03-18T23:57:00.250Z,-7.50
2018-03-18T23:59:26.443Z,-7.50
